createdAt,value
2023-04-21T00:01:55.697Z,41.50
2023-04-21T00:04:29.040Z,39.47
2023-04-21T00:07:03.495Z,38.33
2023-04-21T00:09:35.517Z,37.40
2023-04-21T00:12:07.868Z,40.45
2023-04-21T00:14:40.683Z,38.58
2023-04-21T00:17:12.812Z,38.83
2023-04-21T00:19:45.503Z,39.83
2023-04-21T00:22:18.468Z,37.40
2023-04-21T00:24:50.644Z,36.03
2023-04-21T00:27:22.668Z,38.85
2023-04-21T00:29:54.721Z,37.97
2023-04-21T00:32:26.889Z,38.40
2023-04-21T00:34:59.290Z,36.92
2023-04-21T00:37:31.478Z,39.22
2023-04-21T00:40:05.163Z,39.63
2023-04-21T00:42:37.277Z,39.13
2023-04-21T00:45:10.112Z,36.47
2023-04-21T00:47:43.295Z,34.03
2023-04-21T00:50:16.781Z,40.20
2023-04-21T00:52:49.942Z,33.13
2023-04-21T00:55:22.252Z,37.30
2023-04-21T00:57:56.393Z,34.28
2023-04-21T01:00:33.120Z,36.47
2023-04-21T01:03:06.893Z,34.50
2023-04-21T01:05:39.259Z,31.00
2023-04-21T01:08:11.358Z,33.67
2023-04-21T01:10:44.037Z,28.60
2023-04-21T01:13:21.182Z,28.10
2023-04-21T01:15:53.377Z,30.17
2023-04-21T01:18:25.691Z,33.42
2023-04-21T01:20:58.939Z,34.58
2023-04-21T01:23:31.029Z,40.97
2023-04-21T01:26:03.400Z,35.22
2023-04-21T01:28:36.433Z,31.08
2023-04-21T01:31:09.376Z,35.97
2023-04-21T01:33:42.910Z,35.33
2023-04-21T01:36:15.018Z,33.65
2023-04-21T01:38:47.202Z,35.42
2023-04-21T01:41:19.365Z,40.97
2023-04-21T01:43:51.974Z,34.35
2023-04-21T01:46:24.326Z,36.65
2023-04-21T01:48:56.668Z,37.42
2023-04-21T01:51:28.738Z,39.55
2023-04-21T01:54:00.918Z,39.25
2023-04-21T01:56:33.144Z,33.17
2023-04-21T01:59:05.314Z,33.83
2023-04-21T02:01:37.491Z,34.40
2023-04-21T02:04:09.690Z,36.92
2023-04-21T02:06:41.998Z,37.10
2023-04-21T02:09:14.133Z,36.30
2023-04-21T02:11:46.403Z,34.67
2023-04-21T02:14:18.508Z,38.50
2023-04-21T02:16:50.840Z,37.03
2023-04-21T02:19:23.199Z,34.38
2023-04-21T02:21:55.957Z,37.70
2023-04-21T02:24:28.140Z,40.77
2023-04-21T02:27:00.467Z,37.05
2023-04-21T02:29:33.577Z,32.85
2023-04-21T02:34:43.600Z,36.55
2023-04-21T02:37:15.949Z,38.70
2023-04-21T02:39:48.137Z,34.92
2023-04-21T02:42:20.333Z,39.45
2023-04-21T02:44:53.328Z,34.72
2023-04-21T02:47:26.207Z,33.80
2023-04-21T02:49:58.553Z,34.88
2023-04-21T02:52:30.851Z,34.78
2023-04-21T02:55:03.610Z,32.78
2023-04-21T02:57:35.931Z,33.05
2023-04-21T03:00:09.790Z,37.72
2023-04-21T03:02:42.368Z,39.25
2023-04-21T03:05:14.608Z,37.87
2023-04-21T03:07:48.665Z,36.15
2023-04-21T03:10:20.729Z,35.53
2023-04-21T03:12:53.739Z,34.20
2023-04-21T03:15:26.308Z,33.28
2023-04-21T03:17:59.093Z,30.85
2023-04-21T03:20:31.608Z,29.17
2023-04-21T03:23:03.829Z,32.50
2023-04-21T03:25:36.172Z,31.55
2023-04-21T03:28:08.416Z,33.45
2023-04-21T03:30:40.642Z,28.73
2023-04-21T03:33:12.901Z,28.70
2023-04-21T03:35:46.478Z,33.60
2023-04-21T03:38:19.116Z,27.98
2023-04-21T03:40:51.473Z,33.25
2023-04-21T03:43:24.235Z,33.50
2023-04-21T03:45:57.118Z,31.30
2023-04-21T03:48:29.807Z,31.13
2023-04-21T03:51:01.903Z,34.28
2023-04-21T03:53:33.989Z,37.22
2023-04-21T03:56:06.389Z,34.95
2023-04-21T03:58:38.953Z,36.00
2023-04-21T04:01:11.074Z,35.50
2023-04-21T04:03:43.328Z,34.60
2023-04-21T04:06:15.567Z,34.25
2023-04-21T04:08:47.741Z,38.83
2023-04-21T04:11:20.186Z,39.33
2023-04-21T04:13:52.360Z,34.47
2023-04-21T04:16:24.635Z,33.25
2023-04-21T04:18:56.911Z,36.80
2023-04-21T04:21:29.048Z,40.58
2023-04-21T04:24:02.597Z,33.93
2023-04-21T04:26:35.975Z,34.80
2023-04-21T04:29:10.820Z,34.13
2023-04-21T04:31:43.474Z,34.35
2023-04-21T04:34:15.930Z,35.63
2023-04-21T04:36:48.345Z,32.60
2023-04-21T04:39:22.630Z,32.38
2023-04-21T04:41:54.936Z,35.90
2023-04-21T04:44:28.237Z,33.75
2023-04-21T04:47:00.626Z,41.97
2023-04-21T04:49:32.855Z,33.28
2023-04-21T04:52:05.219Z,34.92
2023-04-21T04:54:37.309Z,38.83
2023-04-21T04:57:09.626Z,34.75
2023-04-21T04:59:41.727Z,39.03
2023-04-21T05:02:14.170Z,37.78
2023-04-21T05:04:46.554Z,37.70
2023-04-21T05:07:18.890Z,42.60
2023-04-21T05:09:51.088Z,41.60
2023-04-21T05:12:23.277Z,38.85
2023-04-21T05:14:55.811Z,39.78
2023-04-21T05:17:28.858Z,38.15
2023-04-21T05:20:01.147Z,39.90
2023-04-21T05:22:38.448Z,31.85
2023-04-21T05:25:12.786Z,38.58
2023-04-21T05:27:44.960Z,36.65
2023-04-21T05:30:17.152Z,36.45
2023-04-21T05:32:49.826Z,39.85
2023-04-21T05:35:22.200Z,38.00
2023-04-21T05:37:54.313Z,40.35
2023-04-21T05:40:26.532Z,37.20
2023-04-21T05:42:58.586Z,37.03
2023-04-21T05:45:30.632Z,37.17
2023-04-21T05:48:02.816Z,34.92
2023-04-21T05:50:35.771Z,36.80
2023-04-21T05:53:08.082Z,34.70
2023-04-21T05:55:40.184Z,33.65
2023-04-21T05:58:12.352Z,36.47
2023-04-21T06:00:44.496Z,35.80
2023-04-21T06:03:16.811Z,39.17
2023-04-21T06:05:55.546Z,40.58
2023-04-21T06:08:27.847Z,42.58
2023-04-21T06:11:00.136Z,34.35
2023-04-21T06:13:32.615Z,32.17
2023-04-21T06:16:05.588Z,33.83
2023-04-21T06:18:38.192Z,32.30
2023-04-21T06:21:11.409Z,31.23
2023-04-21T06:23:44.085Z,31.40
2023-04-21T06:26:16.151Z,32.65
2023-04-21T06:28:48.705Z,27.30
2023-04-21T06:31:21.032Z,27.98
2023-04-21T06:33:53.120Z,33.70
2023-04-21T06:36:25.202Z,28.60
2023-04-21T06:38:57.434Z,29.67
2023-04-21T06:41:29.795Z,27.08
2023-04-21T06:44:02.033Z,29.02
2023-04-21T06:46:34.282Z,26.95
2023-04-21T06:49:06.886Z,28.75
2023-04-21T06:51:39.235Z,29.25
2023-04-21T06:54:11.509Z,25.92
2023-04-21T06:56:43.610Z,24.23
2023-04-21T06:59:16.274Z,26.77
2023-04-21T07:01:52.410Z,28.95
2023-04-21T07:04:24.831Z,26.40
2023-04-21T07:06:59.256Z,24.08
2023-04-21T07:09:34.110Z,23.83
2023-04-21T07:12:06.438Z,25.98
2023-04-21T07:14:38.548Z,26.13
2023-04-21T07:17:11.183Z,26.80
2023-04-21T07:19:43.500Z,26.20
2023-04-21T07:22:16.097Z,23.92
2023-04-21T07:24:49.448Z,24.00
2023-04-21T07:29:53.863Z,21.33
2023-04-21T07:32:26.668Z,21.75
2023-04-21T07:34:58.942Z,20.27
2023-04-21T07:37:31.207Z,25.42
2023-04-21T07:40:04.194Z,23.90
2023-04-21T07:42:36.434Z,23.50
2023-04-21T07:45:08.975Z,22.20
2023-04-21T07:47:41.252Z,32.55
2023-04-21T07:50:13.408Z,22.20
2023-04-21T07:52:45.554Z,23.77
2023-04-21T07:55:18.238Z,22.30
2023-04-21T07:57:51.191Z,21.30
2023-04-21T08:00:23.316Z,19.23
2023-04-21T08:02:55.493Z,22.02
2023-04-21T08:05:31.114Z,22.60
2023-04-21T08:08:05.867Z,23.92
2023-04-21T08:10:38.137Z,20.85
2023-04-21T08:13:10.234Z,20.20
2023-04-21T08:15:42.401Z,19.65
2023-04-21T08:18:19.198Z,17.50
2023-04-21T08:20:52.912Z,23.65
2023-04-21T08:23:25.236Z,19.52
2023-04-21T08:25:58.033Z,18.45
2023-04-21T08:28:30.494Z,22.23
2023-04-21T08:31:03.152Z,17.98
2023-04-21T08:33:37.728Z,20.38
2023-04-21T08:36:26.152Z,16.75
2023-04-21T08:39:01.946Z,21.02
2023-04-21T08:41:34.733Z,17.93
2023-04-21T08:44:07.146Z,14.68
2023-04-21T08:46:40.176Z,20.48
2023-04-21T08:49:16.832Z,18.85
2023-04-21T08:51:49.015Z,15.73
2023-04-21T08:54:21.936Z,16.92
2023-04-21T08:56:58.930Z,19.88
2023-04-21T08:59:37.554Z,19.27
2023-04-21T09:02:18.121Z,16.67
2023-04-21T09:04:52.407Z,17.70
2023-04-21T09:07:36.308Z,18.20
2023-04-21T09:10:08.910Z,17.73
2023-04-21T09:12:41.190Z,17.05
2023-04-21T09:15:13.531Z,17.00
2023-04-21T09:17:46.209Z,18.40
2023-04-21T09:20:21.730Z,21.63
2023-04-21T09:22:53.866Z,16.08
2023-04-21T09:25:26.091Z,19.15
2023-04-21T09:27:58.331Z,21.85
2023-04-21T09:30:30.419Z,18.00
2023-04-21T09:33:08.330Z,16.33
2023-04-21T09:35:45.901Z,14.70
2023-04-21T09:38:18.390Z,17.25
2023-04-21T09:41:00.110Z,17.00
2023-04-21T09:43:32.232Z,16.58
2023-04-21T09:46:07.340Z,17.63
2023-04-21T09:48:44.547Z,16.10
2023-04-21T09:53:57.632Z,16.77
2023-04-21T09:56:34.106Z,16.88
2023-04-21T09:59:12.151Z,17.83
2023-04-21T10:01:48.492Z,21.30
2023-04-21T10:04:23.994Z,16.20
2023-04-21T10:06:56.707Z,13.65
2023-04-21T10:09:37.422Z,14.82
2023-04-21T10:12:10.551Z,14.77
2023-04-21T10:14:43.082Z,14.45
2023-04-21T10:17:17.813Z,15.80
2023-04-21T10:19:52.984Z,19.17
2023-04-21T10:22:34.294Z,11.88
2023-04-21T10:25:10.328Z,14.35
2023-04-21T10:27:46.169Z,15.70
2023-04-21T10:30:23.420Z,14.18
2023-04-21T10:33:06.006Z,14.63
2023-04-21T10:36:03.457Z,16.75
2023-04-21T10:38:43.974Z,13.05
2023-04-21T10:41:33.054Z,9.95
2023-04-21T10:44:23.520Z,8.40
2023-04-21T10:46:58.718Z,10.45
2023-04-21T10:49:31.386Z,11.35
2023-04-21T10:52:04.447Z,11.82
2023-04-21T10:55:04.358Z,9.35
2023-04-21T10:57:37.557Z,9.07
2023-04-21T11:02:44.851Z,9.75
2023-04-21T11:05:17.623Z,8.32
2023-04-21T11:07:49.694Z,8.77
2023-04-21T11:10:22.510Z,9.85
2023-04-21T11:12:57.845Z,9.13
2023-04-21T11:15:30.111Z,8.75
2023-04-21T11:18:02.548Z,10.63
2023-04-21T11:20:34.846Z,9.38
2023-04-21T11:23:06.984Z,8.15
2023-04-21T11:25:39.575Z,10.57
2023-04-21T11:28:11.899Z,12.40
2023-04-21T11:30:44.448Z,11.02
2023-04-21T11:33:16.661Z,11.32
2023-04-21T11:35:51.804Z,10.35
2023-04-21T11:38:25.048Z,11.25
2023-04-21T11:40:57.315Z,7.55
2023-04-21T11:43:29.407Z,9.00
2023-04-21T11:46:27.288Z,10.50
2023-04-21T11:49:11.076Z,14.18
2023-04-21T11:54:18.601Z,12.00
2023-04-21T11:56:52.272Z,10.73
2023-04-21T11:59:26.486Z,12.52
2023-04-21T12:01:58.646Z,14.07
2023-04-21T12:04:33.694Z,12.38
2023-04-21T12:07:06.640Z,14.85
2023-04-21T12:09:38.688Z,11.15
2023-04-21T12:12:10.810Z,15.18
2023-04-21T12:14:45.414Z,10.82
2023-04-21T12:17:18.163Z,8.93
2023-04-21T12:19:51.174Z,9.73
2023-04-21T12:22:23.952Z,5.78
2023-04-21T12:24:56.042Z,5.45
2023-04-21T12:27:28.640Z,6.18
2023-04-21T12:30:01.242Z,6.60
2023-04-21T12:32:33.588Z,8.32
2023-04-21T12:35:06.079Z,7.43
2023-04-21T12:37:38.290Z,8.38
2023-04-21T12:40:10.857Z,6.35
2023-04-21T12:42:43.008Z,4.93
2023-04-21T12:45:15.088Z,4.97
2023-04-21T12:47:47.382Z,7.72
2023-04-21T12:50:19.751Z,6.65
2023-04-21T12:52:55.321Z,7.22
2023-04-21T12:55:27.508Z,6.10
2023-04-21T12:58:00.284Z,5.72
2023-04-21T13:00:33.644Z,10.27
2023-04-21T13:03:05.828Z,9.57
2023-04-21T13:05:38.093Z,6.90
2023-04-21T13:08:10.311Z,5.10
2023-04-21T13:10:42.842Z,6.88
2023-04-21T13:13:15.070Z,9.47
2023-04-21T13:15:47.760Z,6.72
2023-04-21T13:18:20.363Z,4.57
2023-04-21T13:20:52.491Z,4.90
2023-04-21T13:23:24.601Z,5.95
2023-04-21T13:25:56.826Z,4.90
2023-04-21T13:28:28.999Z,3.58
2023-04-21T13:31:01.628Z,4.72
2023-04-21T13:33:35.365Z,3.95
2023-04-21T13:36:11.861Z,6.07
2023-04-21T13:38:44.917Z,4.50
2023-04-21T13:41:17.493Z,5.30
2023-04-21T13:43:50.427Z,4.43
2023-04-21T13:46:23.028Z,3.75
2023-04-21T13:48:56.103Z,5.07
2023-04-21T13:51:28.286Z,4.95
2023-04-21T13:54:00.618Z,4.32
2023-04-21T13:56:32.803Z,4.32
2023-04-21T13:59:06.387Z,3.50
2023-04-21T14:01:38.655Z,3.38
2023-04-21T14:04:10.949Z,3.08
2023-04-21T14:06:43.248Z,2.80
2023-04-21T14:09:15.970Z,2.08
2023-04-21T14:11:48.309Z,2.22
2023-04-21T14:14:31.351Z,4.40
2023-04-21T14:17:09.807Z,4.28
2023-04-21T14:19:41.896Z,3.97
2023-04-21T14:22:14.626Z,5.00
2023-04-21T14:24:46.759Z,3.17
2023-04-21T14:27:18.936Z,1.77
2023-04-21T14:29:51.431Z,3.60
2023-04-21T14:32:23.787Z,2.33
2023-04-21T14:37:31.033Z,3.28
2023-04-21T14:40:04.385Z,2.63
2023-04-21T14:45:09.370Z,3.85
2023-04-21T14:47:42.284Z,3.78
2023-04-21T14:50:14.561Z,2.03
2023-04-21T14:52:49.782Z,1.92
2023-04-21T14:55:23.136Z,4.38
2023-04-21T14:57:55.411Z,5.65
2023-04-21T15:00:29.603Z,4.05
2023-04-21T15:03:01.985Z,2.45
2023-04-21T15:05:35.015Z,2.85
2023-04-21T15:08:07.380Z,2.22
2023-04-21T15:10:39.554Z,5.63
2023-04-21T15:13:12.707Z,2.47
2023-04-21T15:15:44.863Z,3.75
2023-04-21T15:18:17.149Z,2.13
2023-04-21T15:20:49.299Z,3.33
2023-04-21T15:23:22.094Z,6.03
2023-04-21T15:25:54.224Z,3.25
2023-04-21T15:28:26.856Z,3.75
2023-04-21T15:30:59.062Z,3.08
2023-04-21T15:33:31.215Z,3.05
2023-04-21T15:36:03.350Z,3.20
2023-04-21T15:38:35.482Z,4.43
2023-04-21T15:41:08.082Z,4.93
2023-04-21T15:43:40.257Z,6.00
2023-04-21T15:46:15.158Z,4.15
2023-04-21T15:48:47.403Z,3.45
2023-04-21T15:51:20.437Z,2.55
2023-04-21T15:53:52.897Z,3.25
2023-04-21T15:56:25.056Z,2.45
2023-04-21T15:58:57.383Z,2.60
2023-04-21T16:01:29.862Z,2.65
2023-04-21T16:04:02.168Z,3.03
2023-04-21T16:06:35.231Z,2.40
2023-04-21T16:09:07.609Z,3.60
2023-04-21T16:11:39.894Z,2.97
2023-04-21T16:14:16.558Z,3.55
2023-04-21T16:16:48.829Z,5.35
2023-04-21T16:19:20.946Z,3.67
2023-04-21T16:21:53.173Z,3.55
2023-04-21T16:24:26.024Z,3.35
2023-04-21T16:26:59.417Z,8.40
2023-04-21T16:29:32.074Z,2.75
2023-04-21T16:32:04.802Z,4.30
2023-04-21T16:34:38.095Z,4.80
2023-04-21T16:37:10.779Z,3.42
2023-04-21T16:39:43.186Z,3.58
2023-04-21T16:42:15.790Z,2.85
2023-04-21T16:44:48.275Z,4.00
2023-04-21T16:47:20.767Z,2.25
2023-04-21T16:49:53.152Z,3.10
2023-04-21T16:52:25.955Z,3.45
2023-04-21T16:55:00.325Z,2.78
2023-04-21T16:57:33.881Z,4.63
2023-04-21T17:00:07.329Z,6.15
2023-04-21T17:02:40.149Z,3.88
2023-04-21T17:05:12.692Z,2.90
2023-04-21T17:07:45.256Z,4.05
2023-04-21T17:10:18.312Z,4.68
2023-04-21T17:12:50.767Z,3.47
2023-04-21T17:15:22.936Z,2.40
2023-04-21T17:17:55.798Z,2.90
2023-04-21T17:20:28.290Z,3.80
2023-04-21T17:23:00.545Z,4.40
2023-04-21T17:25:32.708Z,3.42
2023-04-21T17:28:05.818Z,3.15
2023-04-21T17:30:38.081Z,3.13
2023-04-21T17:36:02.041Z,5.25
2023-04-21T17:38:35.445Z,4.40
2023-04-21T17:41:08.534Z,3.95
2023-04-21T17:43:40.881Z,4.75
2023-04-21T17:46:12.973Z,4.63
2023-04-21T17:48:46.029Z,6.10
2023-04-21T17:51:19.654Z,4.57
2023-04-21T17:56:23.999Z,4.07
2023-04-21T17:58:56.397Z,7.88
2023-04-21T18:01:28.627Z,5.90
2023-04-21T18:04:01.718Z,4.07
2023-04-21T18:06:34.633Z,4.57
2023-04-21T18:09:06.961Z,5.07
2023-04-21T18:11:39.312Z,3.55
2023-04-21T18:14:13.176Z,5.47
2023-04-21T18:16:45.387Z,5.43
2023-04-21T18:19:18.583Z,7.43
2023-04-21T18:21:50.862Z,4.47
2023-04-21T18:24:23.185Z,3.90
2023-04-21T18:26:55.910Z,6.82
2023-04-21T18:29:28.120Z,7.43
2023-04-21T18:32:01.251Z,5.60
2023-04-21T18:34:33.867Z,7.20
2023-04-21T18:37:05.985Z,5.47
2023-04-21T18:39:38.426Z,3.80
2023-04-21T18:42:10.799Z,6.97
2023-04-21T18:44:43.181Z,5.95
2023-04-21T18:47:15.822Z,6.30
2023-04-21T18:49:48.015Z,6.80
2023-04-21T18:52:20.236Z,6.10
2023-04-21T18:54:52.296Z,7.18
2023-04-21T18:57:25.904Z,10.32
2023-04-21T19:02:30.566Z,8.43
2023-04-21T19:05:03.238Z,5.10
2023-04-21T19:07:36.184Z,8.77
2023-04-21T19:10:09.614Z,7.82
2023-04-21T19:12:41.801Z,8.00
2023-04-21T19:15:13.919Z,7.55
2023-04-21T19:17:46.768Z,7.47
2023-04-21T19:20:19.103Z,8.88
2023-04-21T19:22:51.736Z,10.20
2023-04-21T19:25:23.938Z,9.98
2023-04-21T19:27:56.197Z,9.70
2023-04-21T19:30:28.621Z,12.30
2023-04-21T19:33:00.845Z,8.63
2023-04-21T19:35:33.080Z,13.70
2023-04-21T19:38:06.024Z,14.18
2023-04-21T19:40:38.293Z,17.55
2023-04-21T19:43:11.171Z,10.80
2023-04-21T19:45:43.320Z,12.27
2023-04-21T19:48:16.069Z,14.85
2023-04-21T19:50:48.208Z,13.23
2023-04-21T19:53:20.804Z,10.43
2023-04-21T19:55:53.068Z,7.97
2023-04-21T19:58:39.013Z,7.78
2023-04-21T20:01:13.086Z,5.05
2023-04-21T20:03:46.797Z,5.60
2023-04-21T20:08:51.911Z,5.82
2023-04-21T20:11:25.572Z,3.53
2023-04-21T20:13:59.012Z,3.35
2023-04-21T20:16:32.022Z,4.22
2023-04-21T20:19:04.781Z,4.50
2023-04-21T20:21:37.462Z,2.58
2023-04-21T20:24:10.781Z,2.15
2023-04-21T20:26:42.944Z,3.38
2023-04-21T20:29:15.155Z,3.97
2023-04-21T20:31:47.443Z,3.42
2023-04-21T20:34:19.646Z,7.07
2023-04-21T20:36:54.663Z,3.05
2023-04-21T20:39:26.755Z,4.07
2023-04-21T20:42:12.011Z,5.03
2023-04-21T20:44:46.296Z,2.70
2023-04-21T20:47:18.710Z,2.55
2023-04-21T20:49:51.316Z,3.10
2023-04-21T20:52:23.821Z,2.80
2023-04-21T20:54:56.310Z,3.47
2023-04-21T20:57:28.524Z,4.47
2023-04-21T21:00:00.673Z,4.80
2023-04-21T21:02:33.110Z,3.30
2023-04-21T21:05:06.060Z,2.17
2023-04-21T21:07:38.276Z,4.20
2023-04-21T21:10:11.628Z,4.75
2023-04-21T21:12:43.877Z,2.05
2023-04-21T21:15:16.094Z,2.50
2023-04-21T21:17:48.335Z,4.18
2023-04-21T21:20:20.461Z,4.25
2023-04-21T21:22:52.757Z,2.15
2023-04-21T21:25:25.225Z,2.45
2023-04-21T21:27:57.602Z,4.18
2023-04-21T21:30:30.071Z,3.45
2023-04-21T21:33:02.244Z,4.30
2023-04-21T21:35:34.618Z,2.90
2023-04-21T21:38:06.996Z,2.28
2023-04-21T21:40:39.328Z,1.63
2023-04-21T21:43:11.422Z,4.50
2023-04-21T21:45:43.571Z,3.13
2023-04-21T21:48:16.982Z,2.70
2023-04-21T21:50:49.215Z,3.50
2023-04-21T21:53:21.581Z,5.53
2023-04-21T21:55:54.334Z,4.10
2023-04-21T21:58:26.984Z,4.63
2023-04-21T22:00:59.478Z,2.97
2023-04-21T22:03:32.491Z,3.38
2023-04-21T22:06:05.204Z,2.63
2023-04-21T22:08:38.029Z,5.15
2023-04-21T22:11:10.485Z,4.10
2023-04-21T22:13:42.576Z,4.93
2023-04-21T22:16:14.652Z,4.82
2023-04-21T22:18:48.454Z,4.45
2023-04-21T22:21:20.767Z,4.07
2023-04-21T22:23:53.690Z,6.20
2023-04-21T22:26:25.841Z,6.32
2023-04-21T22:28:58.266Z,5.72
2023-04-21T22:31:30.919Z,5.40
2023-04-21T22:34:03.608Z,6.67
2023-04-21T22:36:36.637Z,5.90
2023-04-21T22:39:09.633Z,5.00
2023-04-21T22:41:41.798Z,8.48
2023-04-21T22:44:14.728Z,6.32
2023-04-21T22:46:46.826Z,5.60
2023-04-21T22:49:19.733Z,6.10
2023-04-21T22:51:51.840Z,7.70
2023-04-21T22:54:24.394Z,4.57
2023-04-21T22:56:56.918Z,3.95
2023-04-21T22:59:29.487Z,7.47
2023-04-21T23:02:01.810Z,4.93
2023-04-21T23:04:35.451Z,4.38
2023-04-21T23:07:07.998Z,6.63
2023-04-21T23:09:40.447Z,5.47
2023-04-21T23:12:12.894Z,3.90
2023-04-21T23:14:45.007Z,7.05
2023-04-21T23:17:17.115Z,6.85
2023-04-21T23:19:49.299Z,4.97
2023-04-21T23:22:25.373Z,4.38
2023-04-21T23:24:58.248Z,5.47
2023-04-21T23:27:30.372Z,4.95
2023-04-21T23:30:02.664Z,6.38
2023-04-21T23:32:34.836Z,7.55
2023-04-21T23:35:07.633Z,8.35
2023-04-21T23:37:41.022Z,5.00
2023-04-21T23:40:13.210Z,5.90
2023-04-21T23:42:47.457Z,5.80
2023-04-21T23:45:20.126Z,6.68
2023-04-21T23:47:52.312Z,5.30
2023-04-21T23:50:24.607Z,6.90
2023-04-21T23:52:56.758Z,4.90
2023-04-21T23:55:29.320Z,6.90
2023-04-21T23:58:01.400Z,5.93
